sensor_id;sensor_type;location;lat;lon;timestamp;temperature;humidity
17178;DHT22;8704;52.006;4.374;2023-04-01T00:01:06;9.50;99.90
17178;DHT22;8704;52.006;4.374;2023-04-01T00:03:34;9.50;99.90
17178;DHT22;8704;52.006;4.374;2023-04-01T00:06:03;9.50;99.90
17178;DHT22;8704;52.006;4.374;2023-04-01T00:08:31;9.80;99.90
17178;DHT22;8704;52.006;4.374;2023-04-01T00:11:00;9.60;99.90
17178;DHT22;8704;52.006;4.374;2023-04-01T00:13:28;9.50;99.90
17178;DHT22;8704;52.006;4.374;2023-04-01T00:15:56;9.40;99.90
17178;DHT22;8704;52.006;4.374;2023-04-01T00:18:26;9.40;99.90
17178;DHT22;8704;52.006;4.374;2023-04-01T00:20:54;9.40;99.90
17178;DHT22;8704;52.006;4.374;2023-04-01T00:23:22;9.60;99.90
17178;DHT22;8704;52.006;4.374;2023-04-01T00:25:50;9.40;99.90
17178;DHT22;8704;52.006;4.374;2023-04-01T00:28:20;9.30;99.90
17178;DHT22;8704;52.006;4.374;2023-04-01T00:30:48;9.30;99.90
17178;DHT22;8704;52.006;4.374;2023-04-01T00:33:16;9.30;99.90
17178;DHT22;8704;52.006;4.374;2023-04-01T00:35:44;9.30;99.90
17178;DHT22;8704;52.006;4.374;2023-04-01T00:38:12;9.50;99.90
17178;DHT22;8704;52.006;4.374;2023-04-01T00:40:43;9.20;99.90
17178;DHT22;8704;52.006;4.374;2023-04-01T00:43:13;9.30;99.90
17178;DHT22;8704;52.006;4.374;2023-04-01T00:45:44;9.80;99.90
17178;DHT22;8704;52.006;4.374;2023-04-01T00:48:16;9.20;99.90
17178;DHT22;8704;52.006;4.374;2023-04-01T00:50:46;9.20;99.90
17178;DHT22;8704;52.006;4.374;2023-04-01T00:53:16;9.40;99.90
17178;DHT22;8704;52.006;4.374;2023-04-01T00:55:50;9.60;99.90
17178;DHT22;8704;52.006;4.374;2023-04-01T00:58:21;9.30;99.90
17178;DHT22;8704;52.006;4.374;2023-04-01T01:00:51;9.30;99.90
17178;DHT22;8704;52.006;4.374;2023-04-01T01:03:19;9.20;99.90
17178;DHT22;8704;52.006;4.374;2023-04-01T01:06:16;9.30;99.90
17178;DHT22;8704;52.006;4.374;2023-04-01T01:09:18;9.20;99.90
17178;DHT22;8704;52.006;4.374;2023-04-01T01:11:52;9.20;99.90
17178;DHT22;8704;52.006;4.374;2023-04-01T01:14:31;9.50;99.90
17178;DHT22;8704;52.006;4.374;2023-04-01T01:17:07;9.20;99.90
17178;DHT22;8704;52.006;4.374;2023-04-01T01:23:06;9.60;99.90
17178;DHT22;8704;52.006;4.374;2023-04-01T01:25:44;9.20;99.90
17178;DHT22;8704;52.006;4.374;2023-04-01T01:28:28;9.20;99.90
17178;DHT22;8704;52.006;4.374;2023-04-01T01:31:05;9.20;99.90
17178;DHT22;8704;52.006;4.374;2023-04-01T01:33:57;9.30;99.90
17178;DHT22;8704;52.006;4.374;2023-04-01T01:36:31;9.50;99.90
17178;DHT22;8704;52.006;4.374;2023-04-01T01:39:02;9.20;99.90
17178;DHT22;8704;52.006;4.374;2023-04-01T01:41:31;9.10;99.90
17178;DHT22;8704;52.006;4.374;2023-04-01T01:44:03;9.10;99.90
17178;DHT22;8704;52.006;4.374;2023-04-01T01:46:33;9.30;99.90
17178;DHT22;8704;52.006;4.374;2023-04-01T01:49:03;9.10;99.90
17178;DHT22;8704;52.006;4.374;2023-04-01T01:51:33;9.10;99.90
17178;DHT22;8704;52.006;4.374;2023-04-01T01:54:02;9.10;99.90
17178;DHT22;8704;52.006;4.374;2023-04-01T01:56:30;9.10;99.90
17178;DHT22;8704;52.006;4.374;2023-04-01T01:59:02;9.70;99.90
17178;DHT22;8704;52.006;4.374;2023-04-01T02:01:33;9.10;99.90
17178;DHT22;8704;52.006;4.374;2023-04-01T02:04:03;9.10;99.90
17178;DHT22;8704;52.006;4.374;2023-04-01T02:06:37;9.10;99.90
17178;DHT22;8704;52.006;4.374;2023-04-01T02:09:08;9.10;99.90
17178;DHT22;8704;52.006;4.374;2023-04-01T02:11:41;9.10;99.90
17178;DHT22;8704;52.006;4.374;2023-04-01T02:14:14;9.10;99.90
17178;DHT22;8704;52.006;4.374;2023-04-01T02:16:46;9.10;99.90
17178;DHT22;8704;52.006;4.374;2023-04-01T02:19:17;9.10;99.90
17178;DHT22;8704;52.006;4.374;2023-04-01T02:21:52;9.10;99.90
17178;DHT22;8704;52.006;4.374;2023-04-01T02:24:25;9.70;99.90
17178;DHT22;8704;52.006;4.374;2023-04-01T02:26:53;9.10;99.90
17178;DHT22;8704;52.006;4.374;2023-04-01T02:29:23;9.00;99.90
17178;DHT22;8704;52.006;4.374;2023-04-01T02:31:52;10.30;99.90
17178;DHT22;8704;52.006;4.374;2023-04-01T02:34:22;9.10;99.90
17178;DHT22;8704;52.006;4.374;2023-04-01T02:36:52;9.60;99.90
17178;DHT22;8704;52.006;4.374;2023-04-01T02:39:21;9.10;99.90
17178;DHT22;8704;52.006;4.374;2023-04-01T02:41:49;9.10;99.90
17178;DHT22;8704;52.006;4.374;2023-04-01T02:44:17;9.10;99.90
17178;DHT22;8704;52.006;4.374;2023-04-01T02:46:45;9.10;99.90
17178;DHT22;8704;52.006;4.374;2023-04-01T02:49:13;9.10;1.00
17178;DHT22;8704;52.006;4.374;2023-04-01T02:51:41;9.10;1.00
17178;DHT22;8704;52.006;4.374;2023-04-01T02:54:10;9.10;1.00
17178;DHT22;8704;52.006;4.374;2023-04-01T02:56:38;9.10;1.00
17178;DHT22;8704;52.006;4.374;2023-04-01T02:59:06;9.10;1.00
17178;DHT22;8704;52.006;4.374;2023-04-01T03:01:34;9.10;1.00
17178;DHT22;8704;52.006;4.374;2023-04-01T03:04:03;9.30;1.00
17178;DHT22;8704;52.006;4.374;2023-04-01T03:06:31;9.20;1.00
17178;DHT22;8704;52.006;4.374;2023-04-01T03:08:59;9.50;1.00
17178;DHT22;8704;52.006;4.374;2023-04-01T03:11:28;9.20;1.00
17178;DHT22;8704;52.006;4.374;2023-04-01T03:13:56;9.20;1.00
17178;DHT22;8704;52.006;4.374;2023-04-01T03:16:24;9.20;1.00
17178;DHT22;8704;52.006;4.374;2023-04-01T03:18:52;9.20;1.00
17178;DHT22;8704;52.006;4.374;2023-04-01T03:21:23;10.00;1.00
17178;DHT22;8704;52.006;4.374;2023-04-01T03:23:52;9.20;1.00
17178;DHT22;8704;52.006;4.374;2023-04-01T03:26:20;9.20;1.00
17178;DHT22;8704;52.006;4.374;2023-04-01T03:28:49;9.60;1.00
17178;DHT22;8704;52.006;4.374;2023-04-01T03:31:17;9.70;1.00
17178;DHT22;8704;52.006;4.374;2023-04-01T03:33:49;9.90;1.00
17178;DHT22;8704;52.006;4.374;2023-04-01T03:36:17;10.00;1.00
17178;DHT22;8704;52.006;4.374;2023-04-01T03:38:45;9.20;1.00
17178;DHT22;8704;52.006;4.374;2023-04-01T03:41:14;9.20;1.00
17178;DHT22;8704;52.006;4.374;2023-04-01T03:43:42;9.30;1.00
17178;DHT22;8704;52.006;4.374;2023-04-01T03:46:17;9.20;1.00
17178;DHT22;8704;52.006;4.374;2023-04-01T03:48:45;9.20;1.00
17178;DHT22;8704;52.006;4.374;2023-04-01T03:51:13;9.30;1.00
17178;DHT22;8704;52.006;4.374;2023-04-01T03:53:41;9.20;1.00
17178;DHT22;8704;52.006;4.374;2023-04-01T03:56:10;10.20;1.00
17178;DHT22;8704;52.006;4.374;2023-04-01T03:58:38;9.80;1.00
17178;DHT22;8704;52.006;4.374;2023-04-01T04:01:16;9.30;1.00
17178;DHT22;8704;52.006;4.374;2023-04-01T04:03:44;9.50;1.00
17178;DHT22;8704;52.006;4.374;2023-04-01T04:06:13;9.30;1.00
17178;DHT22;8704;52.006;4.374;2023-04-01T04:08:42;9.30;1.00
17178;DHT22;8704;52.006;4.374;2023-04-01T04:11:10;9.30;1.00
17178;DHT22;8704;52.006;4.374;2023-04-01T04:13:38;9.30;1.00
17178;DHT22;8704;52.006;4.374;2023-04-01T04:16:07;9.30;1.00
17178;DHT22;8704;52.006;4.374;2023-04-01T04:18:37;9.30;1.00
17178;DHT22;8704;52.006;4.374;2023-04-01T04:21:05;9.30;1.00
17178;DHT22;8704;52.006;4.374;2023-04-01T04:23:34;9.30;1.00
17178;DHT22;8704;52.006;4.374;2023-04-01T04:26:05;9.40;1.00
17178;DHT22;8704;52.006;4.374;2023-04-01T04:28:34;9.30;1.00
17178;DHT22;8704;52.006;4.374;2023-04-01T04:31:03;9.50;1.00
17178;DHT22;8704;52.006;4.374;2023-04-01T04:33:33;9.40;1.00
17178;DHT22;8704;52.006;4.374;2023-04-01T04:36:03;9.70;1.00
17178;DHT22;8704;52.006;4.374;2023-04-01T04:38:31;9.30;1.00
17178;DHT22;8704;52.006;4.374;2023-04-01T04:40:59;9.30;1.00
17178;DHT22;8704;52.006;4.374;2023-04-01T04:43:28;9.30;1.00
17178;DHT22;8704;52.006;4.374;2023-04-01T04:45:56;9.30;1.00
17178;DHT22;8704;52.006;4.374;2023-04-01T04:48:24;10.30;1.00
17178;DHT22;8704;52.006;4.374;2023-04-01T04:50:52;9.20;1.00
17178;DHT22;8704;52.006;4.374;2023-04-01T04:53:21;9.30;1.00
17178;DHT22;8704;52.006;4.374;2023-04-01T04:55:50;9.30;1.00
17178;DHT22;8704;52.006;4.374;2023-04-01T04:58:18;9.20;1.00
17178;DHT22;8704;52.006;4.374;2023-04-01T05:00:47;9.30;1.00
17178;DHT22;8704;52.006;4.374;2023-04-01T05:03:15;9.20;1.00
17178;DHT22;8704;52.006;4.374;2023-04-01T05:05:48;10.30;1.00
17178;DHT22;8704;52.006;4.374;2023-04-01T05:08:17;9.30;1.00
17178;DHT22;8704;52.006;4.374;2023-04-01T05:10:46;9.40;1.00
17178;DHT22;8704;52.006;4.374;2023-04-01T05:13:14;9.30;1.00
17178;DHT22;8704;52.006;4.374;2023-04-01T05:15:42;9.70;1.00
17178;DHT22;8704;52.006;4.374;2023-04-01T05:18:10;9.90;1.00
17178;DHT22;8704;52.006;4.374;2023-04-01T05:20:38;9.10;1.00
17178;DHT22;8704;52.006;4.374;2023-04-01T05:23:06;10.20;1.00
17178;DHT22;8704;52.006;4.374;2023-04-01T05:25:37;9.80;1.00
17178;DHT22;8704;52.006;4.374;2023-04-01T05:28:06;9.20;1.00
17178;DHT22;8704;52.006;4.374;2023-04-01T05:30:35;10.20;1.00
17178;DHT22;8704;52.006;4.374;2023-04-01T05:33:03;9.10;1.00
17178;DHT22;8704;52.006;4.374;2023-04-01T05:35:31;9.10;1.00
17178;DHT22;8704;52.006;4.374;2023-04-01T05:37:59;9.20;1.00
17178;DHT22;8704;52.006;4.374;2023-04-01T05:40:27;9.30;1.00
17178;DHT22;8704;52.006;4.374;2023-04-01T05:42:55;9.30;1.00
17178;DHT22;8704;52.006;4.374;2023-04-01T05:45:25;9.10;1.00
17178;DHT22;8704;52.006;4.374;2023-04-01T05:47:53;9.10;1.00
17178;DHT22;8704;52.006;4.374;2023-04-01T05:50:22;9.20;1.00
17178;DHT22;8704;52.006;4.374;2023-04-01T05:52:50;9.10;1.00
17178;DHT22;8704;52.006;4.374;2023-04-01T05:55:18;10.10;1.00
17178;DHT22;8704;52.006;4.374;2023-04-01T05:57:46;9.60;1.00
17178;DHT22;8704;52.006;4.374;2023-04-01T06:00:16;9.10;1.00
17178;DHT22;8704;52.006;4.374;2023-04-01T06:02:45;9.00;1.00
17178;DHT22;8704;52.006;4.374;2023-04-01T06:05:17;9.00;1.00
17178;DHT22;8704;52.006;4.374;2023-04-01T06:07:46;9.10;1.00
17178;DHT22;8704;52.006;4.374;2023-04-01T06:10:16;9.00;1.00
17178;DHT22;8704;52.006;4.374;2023-04-01T06:13:00;9.00;1.00
17178;DHT22;8704;52.006;4.374;2023-04-01T06:15:38;9.20;1.00
17178;DHT22;8704;52.006;4.374;2023-04-01T06:18:36;9.20;1.00
17178;DHT22;8704;52.006;4.374;2023-04-01T06:21:19;9.30;1.00
17178;DHT22;8704;52.006;4.374;2023-04-01T06:23:59;9.30;1.00
17178;DHT22;8704;52.006;4.374;2023-04-01T06:26:34;9.00;1.00
17178;DHT22;8704;52.006;4.374;2023-04-01T06:32:27;9.00;1.00
17178;DHT22;8704;52.006;4.374;2023-04-01T06:35:20;9.00;1.00
17178;DHT22;8704;52.006;4.374;2023-04-01T06:38:07;9.00;1.00
17178;DHT22;8704;52.006;4.374;2023-04-01T06:40:58;9.00;1.00
17178;DHT22;8704;52.006;4.374;2023-04-01T06:43:38;9.00;1.00
17178;DHT22;8704;52.006;4.374;2023-04-01T06:46:19;9.60;1.00
17178;DHT22;8704;52.006;4.374;2023-04-01T06:49:02;9.00;1.00
17178;DHT22;8704;52.006;4.374;2023-04-01T06:51:41;9.10;1.00
17178;DHT22;8704;52.006;4.374;2023-04-01T06:54:16;9.10;1.00
17178;DHT22;8704;52.006;4.374;2023-04-01T06:56:48;9.10;1.00
17178;DHT22;8704;52.006;4.374;2023-04-01T06:59:20;9.20;1.00
17178;DHT22;8704;52.006;4.374;2023-04-01T07:01:51;9.70;1.00
17178;DHT22;8704;52.006;4.374;2023-04-01T07:04:23;9.20;1.00
17178;DHT22;8704;52.006;4.374;2023-04-01T07:06:56;9.90;1.00
17178;DHT22;8704;52.006;4.374;2023-04-01T07:09:31;9.20;1.00
17178;DHT22;8704;52.006;4.374;2023-04-01T07:12:02;10.20;1.00
17178;DHT22;8704;52.006;4.374;2023-04-01T07:14:33;9.60;99.90
17178;DHT22;8704;52.006;4.374;2023-04-01T07:17:05;9.30;99.90
17178;DHT22;8704;52.006;4.374;2023-04-01T07:19:41;9.20;99.90
17178;DHT22;8704;52.006;4.374;2023-04-01T07:22:21;8.40;1.00
17178;DHT22;8704;52.006;4.374;2023-04-01T07:24:53;10.30;99.90
17178;DHT22;8704;52.006;4.374;2023-04-01T07:27:22;9.40;99.90
17178;DHT22;8704;52.006;4.374;2023-04-01T07:29:51;9.60;99.90
17178;DHT22;8704;52.006;4.374;2023-04-01T07:32:25;9.40;99.90
17178;DHT22;8704;52.006;4.374;2023-04-01T07:35:07;9.30;1.00
17178;DHT22;8704;52.006;4.374;2023-04-01T07:37:45;9.30;99.90
17178;DHT22;8704;52.006;4.374;2023-04-01T07:40:23;9.40;99.90
17178;DHT22;8704;52.006;4.374;2023-04-01T07:43:05;10.40;99.90
17178;DHT22;8704;52.006;4.374;2023-04-01T07:45:41;9.30;99.90
17178;DHT22;8704;52.006;4.374;2023-04-01T07:48:20;9.40;99.90
17178;DHT22;8704;52.006;4.374;2023-04-01T07:50:56;9.30;99.90
17178;DHT22;8704;52.006;4.374;2023-04-01T07:53:34;9.30;99.90
17178;DHT22;8704;52.006;4.374;2023-04-01T07:56:07;9.40;99.90
17178;DHT22;8704;52.006;4.374;2023-04-01T07:58:47;9.40;99.90
17178;DHT22;8704;52.006;4.374;2023-04-01T08:01:25;9.30;99.90
17178;DHT22;8704;52.006;4.374;2023-04-01T08:04:23;9.40;99.90
17178;DHT22;8704;52.006;4.374;2023-04-01T08:06:57;9.40;99.90
17178;DHT22;8704;52.006;4.374;2023-04-01T08:09:35;9.50;99.90
17178;DHT22;8704;52.006;4.374;2023-04-01T08:12:15;9.40;99.90
17178;DHT22;8704;52.006;4.374;2023-04-01T08:14:54;9.50;99.90
17178;DHT22;8704;52.006;4.374;2023-04-01T08:17:30;9.40;99.90
17178;DHT22;8704;52.006;4.374;2023-04-01T08:20:12;9.40;99.90
17178;DHT22;8704;52.006;4.374;2023-04-01T08:22:43;9.50;99.90
17178;DHT22;8704;52.006;4.374;2023-04-01T08:25:19;9.90;99.90
17178;DHT22;8704;52.006;4.374;2023-04-01T08:27:51;9.60;99.90
17178;DHT22;8704;52.006;4.374;2023-04-01T08:30:23;9.50;99.90
17178;DHT22;8704;52.006;4.374;2023-04-01T08:32:55;9.50;99.90
17178;DHT22;8704;52.006;4.374;2023-04-01T08:35:28;9.50;99.90
17178;DHT22;8704;52.006;4.374;2023-04-01T08:38:06;9.50;99.90
17178;DHT22;8704;52.006;4.374;2023-04-01T08:40:59;9.50;99.90
17178;DHT22;8704;52.006;4.374;2023-04-01T08:43:56;9.50;99.90
17178;DHT22;8704;52.006;4.374;2023-04-01T08:49:42;9.50;99.90
17178;DHT22;8704;52.006;4.374;2023-04-01T08:52:25;9.60;99.90
17178;DHT22;8704;52.006;4.374;2023-04-01T08:57:55;9.70;99.90
17178;DHT22;8704;52.006;4.374;2023-04-01T09:00:30;9.60;99.90
17178;DHT22;8704;52.006;4.374;2023-04-01T09:06:26;9.60;99.90
17178;DHT22;8704;52.006;4.374;2023-04-01T09:09:17;10.70;99.90
17178;DHT22;8704;52.006;4.374;2023-04-01T09:12:05;9.70;99.90
17178;DHT22;8704;52.006;4.374;2023-04-01T09:14:48;9.70;99.90
17178;DHT22;8704;52.006;4.374;2023-04-01T09:17:38;9.70;99.90
17178;DHT22;8704;52.006;4.374;2023-04-01T09:20:34;9.70;99.90
17178;DHT22;8704;52.006;4.374;2023-04-01T09:23:25;9.80;99.90
17178;DHT22;8704;52.006;4.374;2023-04-01T09:26:19;9.70;99.90
17178;DHT22;8704;52.006;4.374;2023-04-01T09:28:55;9.70;94.70
17178;DHT22;8704;52.006;4.374;2023-04-01T09:32:07;9.60;42.50
17178;DHT22;8704;52.006;4.374;2023-04-01T09:34:52;9.70;91.50
17178;DHT22;8704;52.006;4.374;2023-04-01T09:37:34;9.70;91.00
17178;DHT22;8704;52.006;4.374;2023-04-01T09:40:16;10.20;36.80
17178;DHT22;8704;52.006;4.374;2023-04-01T09:43:02;9.70;22.50
17178;DHT22;8704;52.006;4.374;2023-04-01T09:45:48;9.80;10.70
17178;DHT22;8704;52.006;4.374;2023-04-01T09:48:46;9.80;1.00
17178;DHT22;8704;52.006;4.374;2023-04-01T09:51:29;9.80;1.00
17178;DHT22;8704;52.006;4.374;2023-04-01T09:54:08;9.90;37.60
17178;DHT22;8704;52.006;4.374;2023-04-01T10:00:32;9.80;21.10
17178;DHT22;8704;52.006;4.374;2023-04-01T10:06:58;9.90;1.00
17178;DHT22;8704;52.006;4.374;2023-04-01T10:22:04;9.80;1.00
17178;DHT22;8704;52.006;4.374;2023-04-01T10:25:11;9.80;1.00
17178;DHT22;8704;52.006;4.374;2023-04-01T10:28:23;9.90;1.00
17178;DHT22;8704;52.006;4.374;2023-04-01T10:36:54;10.00;1.00
17178;DHT22;8704;52.006;4.374;2023-04-01T10:42:43;9.90;1.00
17178;DHT22;8704;52.006;4.374;2023-04-01T10:55:04;10.10;1.00
17178;DHT22;8704;52.006;4.374;2023-04-01T10:58:10;10.20;1.00
17178;DHT22;8704;52.006;4.374;2023-04-01T11:01:02;10.10;1.00
17178;DHT22;8704;52.006;4.374;2023-04-01T11:13:38;10.10;1.00
17178;DHT22;8704;52.006;4.374;2023-04-01T11:25:42;10.10;1.00
17178;DHT22;8704;52.006;4.374;2023-04-01T11:28:24;10.10;1.00
17178;DHT22;8704;52.006;4.374;2023-04-01T11:31:29;10.10;1.00
17178;DHT22;8704;52.006;4.374;2023-04-01T11:34:11;10.20;1.00
17178;DHT22;8704;52.006;4.374;2023-04-01T11:36:48;10.80;1.00
17178;DHT22;8704;52.006;4.374;2023-04-01T11:39:27;10.10;1.00
17178;DHT22;8704;52.006;4.374;2023-04-01T11:42:09;10.50;1.00
17178;DHT22;8704;52.006;4.374;2023-04-01T11:44:46;10.10;1.00
17178;DHT22;8704;52.006;4.374;2023-04-01T11:47:29;10.20;1.00
17178;DHT22;8704;52.006;4.374;2023-04-01T11:50:16;10.20;1.00
17178;DHT22;8704;52.006;4.374;2023-04-01T11:55:56;10.80;1.00
17178;DHT22;8704;52.006;4.374;2023-04-01T11:58:44;10.10;1.00
17178;DHT22;8704;52.006;4.374;2023-04-01T12:01:22;10.20;1.00
17178;DHT22;8704;52.006;4.374;2023-04-01T12:04:29;10.70;1.00
17178;DHT22;8704;52.006;4.374;2023-04-01T12:07:03;10.40;1.00
17178;DHT22;8704;52.006;4.374;2023-04-01T12:09:41;11.40;1.00
17178;DHT22;8704;52.006;4.374;2023-04-01T12:12:20;10.50;1.00
17178;DHT22;8704;52.006;4.374;2023-04-01T12:15:00;10.60;1.00
17178;DHT22;8704;52.006;4.374;2023-04-01T12:17:37;11.40;1.00
17178;DHT22;8704;52.006;4.374;2023-04-01T12:20:30;10.40;1.00
17178;DHT22;8704;52.006;4.374;2023-04-01T12:23:10;10.40;1.00
17178;DHT22;8704;52.006;4.374;2023-04-01T12:26:01;10.40;1.00
17178;DHT22;8704;52.006;4.374;2023-04-01T12:28:41;10.40;1.00
17178;DHT22;8704;52.006;4.374;2023-04-01T12:31:27;10.50;1.00
17178;DHT22;8704;52.006;4.374;2023-04-01T12:34:23;10.70;1.00
17178;DHT22;8704;52.006;4.374;2023-04-01T12:37:03;10.70;1.00
17178;DHT22;8704;52.006;4.374;2023-04-01T12:39:51;10.70;1.00
17178;DHT22;8704;52.006;4.374;2023-04-01T12:42:43;10.70;1.00
17178;DHT22;8704;52.006;4.374;2023-04-01T12:45:32;10.60;1.00
17178;DHT22;8704;52.006;4.374;2023-04-01T12:48:23;10.70;1.00
17178;DHT22;8704;52.006;4.374;2023-04-01T12:54:54;10.70;1.00
17178;DHT22;8704;52.006;4.374;2023-04-01T12:57:34;10.60;1.00
17178;DHT22;8704;52.006;4.374;2023-04-01T13:00:25;10.60;1.00
17178;DHT22;8704;52.006;4.374;2023-04-01T13:03:09;10.70;1.00
17178;DHT22;8704;52.006;4.374;2023-04-01T13:08:53;10.70;1.00
17178;DHT22;8704;52.006;4.374;2023-04-01T13:11:35;10.70;1.00
17178;DHT22;8704;52.006;4.374;2023-04-01T13:17:12;10.60;99.90
17178;DHT22;8704;52.006;4.374;2023-04-01T13:19:48;10.70;1.00
17178;DHT22;8704;52.006;4.374;2023-04-01T13:22:40;10.70;1.00
17178;DHT22;8704;52.006;4.374;2023-04-01T13:25:19;10.90;99.90
17178;DHT22;8704;52.006;4.374;2023-04-01T13:27:58;10.70;99.90
17178;DHT22;8704;52.006;4.374;2023-04-01T13:30:35;10.70;99.90
17178;DHT22;8704;52.006;4.374;2023-04-01T13:33:12;11.60;99.90
17178;DHT22;8704;52.006;4.374;2023-04-01T13:35:48;10.70;99.90
17178;DHT22;8704;52.006;4.374;2023-04-01T13:38:39;10.80;99.90
17178;DHT22;8704;52.006;4.374;2023-04-01T13:41:19;11.00;1.00
17178;DHT22;8704;52.006;4.374;2023-04-01T13:43:55;10.90;99.90
17178;DHT22;8704;52.006;4.374;2023-04-01T13:46:44;10.80;99.90
17178;DHT22;8704;52.006;4.374;2023-04-01T13:49:43;10.80;99.90
17178;DHT22;8704;52.006;4.374;2023-04-01T13:52:44;10.80;99.90
17178;DHT22;8704;52.006;4.374;2023-04-01T13:55:29;10.80;99.90
17178;DHT22;8704;52.006;4.374;2023-04-01T13:58:23;10.70;99.90
17178;DHT22;8704;52.006;4.374;2023-04-01T14:01:06;10.60;99.90
17178;DHT22;8704;52.006;4.374;2023-04-01T14:03:50;10.70;99.90
17178;DHT22;8704;52.006;4.374;2023-04-01T14:06:31;10.80;99.90
17178;DHT22;8704;52.006;4.374;2023-04-01T14:09:16;10.70;99.90
17178;DHT22;8704;52.006;4.374;2023-04-01T14:11:56;10.80;99.90
17178;DHT22;8704;52.006;4.374;2023-04-01T14:14:34;10.70;99.90
17178;DHT22;8704;52.006;4.374;2023-04-01T14:17:17;10.70;99.90
17178;DHT22;8704;52.006;4.374;2023-04-01T14:20:25;10.80;99.90
17178;DHT22;8704;52.006;4.374;2023-04-01T14:23:12;10.70;99.90
17178;DHT22;8704;52.006;4.374;2023-04-01T14:28:49;10.80;99.90
17178;DHT22;8704;52.006;4.374;2023-04-01T14:31:47;10.80;99.90
17178;DHT22;8704;52.006;4.374;2023-04-01T14:34:26;10.80;99.90
17178;DHT22;8704;52.006;4.374;2023-04-01T14:37:13;10.90;99.90
17178;DHT22;8704;52.006;4.374;2023-04-01T14:43:01;10.90;99.90
17178;DHT22;8704;52.006;4.374;2023-04-01T14:45:45;11.00;99.90
17178;DHT22;8704;52.006;4.374;2023-04-01T14:48:21;11.00;99.90
17178;DHT22;8704;52.006;4.374;2023-04-01T14:50:55;11.10;99.90
17178;DHT22;8704;52.006;4.374;2023-04-01T14:53:27;11.10;99.90
17178;DHT22;8704;52.006;4.374;2023-04-01T14:55:57;11.20;99.90
17178;DHT22;8704;52.006;4.374;2023-04-01T14:58:39;11.20;99.90
17178;DHT22;8704;52.006;4.374;2023-04-01T15:01:17;12.00;99.90
17178;DHT22;8704;52.006;4.374;2023-04-01T15:03:52;11.00;96.20
17178;DHT22;8704;52.006;4.374;2023-04-01T15:06:40;11.80;99.90
17178;DHT22;8704;52.006;4.374;2023-04-01T15:09:17;11.30;99.90
17178;DHT22;8704;52.006;4.374;2023-04-01T15:12:00;11.30;99.90
17178;DHT22;8704;52.006;4.374;2023-04-01T15:14:44;11.30;99.90
17178;DHT22;8704;52.006;4.374;2023-04-01T15:17:48;11.10;99.90
17178;DHT22;8704;52.006;4.374;2023-04-01T15:23:23;11.10;99.90
17178;DHT22;8704;52.006;4.374;2023-04-01T15:26:28;11.10;99.90
17178;DHT22;8704;52.006;4.374;2023-04-01T15:29:12;11.00;99.90
17178;DHT22;8704;52.006;4.374;2023-04-01T15:31:50;11.10;99.90
17178;DHT22;8704;52.006;4.374;2023-04-01T15:34:31;11.00;99.90
17178;DHT22;8704;52.006;4.374;2023-04-01T15:37:04;11.30;99.90
17178;DHT22;8704;52.006;4.374;2023-04-01T15:39:49;11.10;99.90
17178;DHT22;8704;52.006;4.374;2023-04-01T15:42:27;11.20;99.90
17178;DHT22;8704;52.006;4.374;2023-04-01T15:45:16;11.30;99.90
17178;DHT22;8704;52.006;4.374;2023-04-01T15:47:47;11.20;99.90
17178;DHT22;8704;52.006;4.374;2023-04-01T15:50:36;11.10;99.90
17178;DHT22;8704;52.006;4.374;2023-04-01T15:53:23;11.20;99.90
17178;DHT22;8704;52.006;4.374;2023-04-01T15:55:59;11.20;99.90
17178;DHT22;8704;52.006;4.374;2023-04-01T15:58:52;11.20;99.90
17178;DHT22;8704;52.006;4.374;2023-04-01T16:01:34;11.10;99.90
17178;DHT22;8704;52.006;4.374;2023-04-01T16:04:15;11.20;99.90
17178;DHT22;8704;52.006;4.374;2023-04-01T16:06:56;11.20;99.90
17178;DHT22;8704;52.006;4.374;2023-04-01T16:09:43;11.10;99.90
17178;DHT22;8704;52.006;4.374;2023-04-01T16:12:19;11.10;99.90
17178;DHT22;8704;52.006;4.374;2023-04-01T16:14:57;11.10;99.90
17178;DHT22;8704;52.006;4.374;2023-04-01T16:17:44;11.20;99.90
17178;DHT22;8704;52.006;4.374;2023-04-01T16:20:19;11.10;99.90
17178;DHT22;8704;52.006;4.374;2023-04-01T16:22:49;11.10;99.90
17178;DHT22;8704;52.006;4.374;2023-04-01T16:25:29;11.10;99.90
17178;DHT22;8704;52.006;4.374;2023-04-01T16:28:09;11.20;99.90
17178;DHT22;8704;52.006;4.374;2023-04-01T16:30:46;11.20;99.90
17178;DHT22;8704;52.006;4.374;2023-04-01T16:33:21;11.10;99.90
17178;DHT22;8704;52.006;4.374;2023-04-01T16:35:55;11.30;99.90
17178;DHT22;8704;52.006;4.374;2023-04-01T16:38:33;11.00;99.90
17178;DHT22;8704;52.006;4.374;2023-04-01T16:41:24;11.10;99.90
17178;DHT22;8704;52.006;4.374;2023-04-01T16:43:56;11.00;99.90
17178;DHT22;8704;52.006;4.374;2023-04-01T16:46:33;11.00;99.90
17178;DHT22;8704;52.006;4.374;2023-04-01T16:49:24;11.00;99.90
17178;DHT22;8704;52.006;4.374;2023-04-01T16:51:54;11.10;99.90
17178;DHT22;8704;52.006;4.374;2023-04-01T16:54:31;11.10;99.90
17178;DHT22;8704;52.006;4.374;2023-04-01T16:57:14;12.00;99.90
17178;DHT22;8704;52.006;4.374;2023-04-01T16:59:54;11.00;99.90
17178;DHT22;8704;52.006;4.374;2023-04-01T17:02:27;11.20;99.90
17178;DHT22;8704;52.006;4.374;2023-04-01T17:05:00;10.90;99.90
17178;DHT22;8704;52.006;4.374;2023-04-01T17:07:41;10.80;99.90
17178;DHT22;8704;52.006;4.374;2023-04-01T17:10:33;10.90;99.90
17178;DHT22;8704;52.006;4.374;2023-04-01T17:13:23;10.80;99.90
17178;DHT22;8704;52.006;4.374;2023-04-01T17:16:03;10.80;99.90
17178;DHT22;8704;52.006;4.374;2023-04-01T17:18:37;10.80;99.90
17178;DHT22;8704;52.006;4.374;2023-04-01T17:21:13;10.80;99.90
17178;DHT22;8704;52.006;4.374;2023-04-01T17:23:51;10.80;99.90
17178;DHT22;8704;52.006;4.374;2023-04-01T17:26:26;10.80;99.90
17178;DHT22;8704;52.006;4.374;2023-04-01T17:29:06;10.80;99.90
17178;DHT22;8704;52.006;4.374;2023-04-01T17:31:46;10.80;99.90
17178;DHT22;8704;52.006;4.374;2023-04-01T17:34:31;10.70;99.90
17178;DHT22;8704;52.006;4.374;2023-04-01T17:37:20;10.70;99.90
17178;DHT22;8704;52.006;4.374;2023-04-01T17:40:00;10.70;99.90
17178;DHT22;8704;52.006;4.374;2023-04-01T17:42:40;10.60;99.90
17178;DHT22;8704;52.006;4.374;2023-04-01T17:45:16;10.60;99.90
17178;DHT22;8704;52.006;4.374;2023-04-01T17:47:58;10.60;99.90
17178;DHT22;8704;52.006;4.374;2023-04-01T17:50:37;10.60;99.90
17178;DHT22;8704;52.006;4.374;2023-04-01T17:53:19;10.60;99.90
17178;DHT22;8704;52.006;4.374;2023-04-01T17:55:59;10.70;99.90
17178;DHT22;8704;52.006;4.374;2023-04-01T17:58:34;10.70;99.90
17178;DHT22;8704;52.006;4.374;2023-04-01T18:01:13;10.60;99.90
17178;DHT22;8704;52.006;4.374;2023-04-01T18:03:55;11.00;99.90
17178;DHT22;8704;52.006;4.374;2023-04-01T18:06:32;10.50;99.90
17178;DHT22;8704;52.006;4.374;2023-04-01T18:09:13;10.50;62.90
17178;DHT22;8704;52.006;4.374;2023-04-01T18:11:54;10.30;37.70
17178;DHT22;8704;52.006;4.374;2023-04-01T18:17:25;10.30;24.30
17178;DHT22;8704;52.006;4.374;2023-04-01T18:20:09;10.30;72.80
17178;DHT22;8704;52.006;4.374;2023-04-01T18:22:45;10.20;70.40
17178;DHT22;8704;52.006;4.374;2023-04-01T18:25:19;10.30;99.90
17178;DHT22;8704;52.006;4.374;2023-04-01T18:27:52;10.30;99.90
17178;DHT22;8704;52.006;4.374;2023-04-01T18:30:28;10.20;99.90
17178;DHT22;8704;52.006;4.374;2023-04-01T18:32:58;10.20;99.90
17178;DHT22;8704;52.006;4.374;2023-04-01T18:35:44;10.20;99.90
17178;DHT22;8704;52.006;4.374;2023-04-01T18:38:15;10.80;99.90
17178;DHT22;8704;52.006;4.374;2023-04-01T18:40:50;10.10;99.90
17178;DHT22;8704;52.006;4.374;2023-04-01T18:43:30;10.30;99.90
17178;DHT22;8704;52.006;4.374;2023-04-01T18:46:08;10.10;99.90